createdAt,value
2017-08-19T00:00:04.817Z,0
2017-08-19T00:01:04.810Z,0
2017-08-19T00:02:05.109Z,0
2017-08-19T00:03:05.438Z,0
2017-08-19T00:04:04.827Z,0
2017-08-19T00:05:05.134Z,0
2017-08-19T00:06:05.188Z,0
2017-08-19T00:07:05.424Z,0
2017-08-19T00:08:05.440Z,0
2017-08-19T00:09:05.151Z,0
2017-08-19T00:10:05.137Z,0
2017-08-19T00:11:08.357Z,0
2017-08-19T00:12:05.447Z,0
2017-08-19T00:13:05.445Z,0
2017-08-19T00:14:05.138Z,0
2017-08-19T00:15:05.724Z,0
2017-08-19T00:16:04.853Z,0
2017-08-19T00:17:04.844Z,0
2017-08-19T00:18:05.445Z,0
2017-08-19T00:19:05.155Z,0
2017-08-19T00:20:05.179Z,0
2017-08-19T00:21:05.234Z,0
2017-08-19T00:22:05.460Z,0
2017-08-19T00:23:05.157Z,0
2017-08-19T00:24:05.455Z,0
2017-08-19T00:25:04.855Z,0
2017-08-19T00:26:05.468Z,0
2017-08-19T00:27:05.460Z,0
2017-08-19T00:28:05.460Z,0
2017-08-19T00:29:07.893Z,0
2017-08-19T00:30:05.190Z,0
2017-08-19T00:31:05.519Z,0
2017-08-19T00:32:05.471Z,0
2017-08-19T00:33:05.169Z,0
2017-08-19T00:34:05.548Z,0
2017-08-19T00:35:05.190Z,0
2017-08-19T00:36:05.535Z,0
2017-08-19T00:37:05.473Z,0
2017-08-19T00:38:05.175Z,0
2017-08-19T00:39:05.521Z,0
2017-08-19T00:40:05.484Z,0
2017-08-19T00:41:05.208Z,0
2017-08-19T00:42:05.181Z,0
2017-08-19T00:43:05.531Z,0
2017-08-19T00:44:05.524Z,0
2017-08-19T00:45:04.899Z,0
2017-08-19T00:46:05.498Z,0
2017-08-19T00:47:05.191Z,0
2017-08-19T00:48:05.526Z,0
2017-08-19T00:49:05.500Z,0
2017-08-19T00:50:05.523Z,0
2017-08-19T00:51:05.268Z,0
2017-08-19T00:52:05.202Z,0
2017-08-19T00:53:05.215Z,0
2017-08-19T00:54:05.523Z,0
2017-08-19T00:55:05.517Z,0
2017-08-19T00:56:05.233Z,0
2017-08-19T00:57:05.208Z,0
2017-08-19T00:58:05.536Z,0
2017-08-19T00:59:05.228Z,0
2017-08-19T01:00:05.225Z,0
2017-08-19T01:01:05.555Z,0
2017-08-19T01:02:04.949Z,0
2017-08-19T01:03:05.242Z,0
2017-08-19T01:04:05.248Z,0
2017-08-19T01:05:05.250Z,0
2017-08-19T01:06:05.576Z,0
2017-08-19T01:07:05.249Z,0
2017-08-19T01:08:04.926Z,0
2017-08-19T01:09:05.550Z,0
2017-08-19T01:10:05.229Z,0
2017-08-19T01:11:05.240Z,0
2017-08-19T01:12:05.243Z,0
2017-08-19T01:13:05.536Z,0
2017-08-19T01:14:05.546Z,0
2017-08-19T01:15:04.937Z,0
2017-08-19T01:16:05.031Z,0
2017-08-19T01:17:05.554Z,0
2017-08-19T01:18:05.247Z,0
2017-08-19T01:19:05.253Z,0
2017-08-19T01:20:05.555Z,0
2017-08-19T01:21:04.976Z,0
2017-08-19T01:22:05.555Z,0
2017-08-19T01:23:05.559Z,0
2017-08-19T01:24:05.557Z,0
2017-08-19T01:25:05.587Z,0
2017-08-19T01:26:05.359Z,0
2017-08-19T01:27:05.559Z,0
2017-08-19T01:28:05.567Z,0
2017-08-19T01:29:06.664Z,0
2017-08-19T01:30:05.563Z,0
2017-08-19T01:31:05.564Z,0
2017-08-19T01:32:05.574Z,0
2017-08-19T01:33:05.567Z,0
2017-08-19T01:34:05.297Z,0
2017-08-19T01:35:05.573Z,0
2017-08-19T01:36:05.588Z,0
2017-08-19T01:37:05.275Z,0
2017-08-19T01:38:05.574Z,0
2017-08-19T01:39:05.571Z,0
2017-08-19T01:40:05.578Z,0
2017-08-19T01:41:05.649Z,0
2017-08-19T01:42:05.590Z,0
2017-08-19T01:43:05.591Z,0
2017-08-19T01:44:05.283Z,0
2017-08-19T01:45:05.658Z,0
2017-08-19T01:46:05.665Z,0
2017-08-19T01:47:05.302Z,0
2017-08-19T01:48:05.623Z,0
2017-08-19T01:49:05.593Z,0
2017-08-19T01:50:05.586Z,0
2017-08-19T01:51:05.670Z,0
2017-08-19T01:52:05.288Z,0
2017-08-19T01:53:05.595Z,0
2017-08-19T01:54:05.604Z,0
2017-08-19T01:55:05.679Z,0
2017-08-19T01:56:05.678Z,0
2017-08-19T01:57:05.310Z,0
2017-08-19T01:58:05.614Z,0
2017-08-19T01:59:06.779Z,0
2017-08-19T02:00:05.611Z,0
2017-08-19T02:01:05.311Z,0
2017-08-19T02:02:05.601Z,0
2017-08-19T02:03:05.309Z,0
2017-08-19T02:04:05.612Z,0
2017-08-19T02:05:05.621Z,0
2017-08-19T02:06:05.646Z,0
2017-08-19T02:07:05.630Z,0
2017-08-19T02:08:05.634Z,0
2017-08-19T02:09:05.630Z,0
2017-08-19T02:10:05.659Z,0
2017-08-19T02:11:05.641Z,0
2017-08-19T02:12:05.634Z,0
2017-08-19T02:13:05.334Z,0
2017-08-19T02:14:05.634Z,0
2017-08-19T02:15:05.336Z,0
2017-08-19T02:16:05.697Z,0
2017-08-19T02:17:05.333Z,0
2017-08-19T02:18:05.642Z,0
2017-08-19T02:19:05.641Z,0
2017-08-19T02:20:05.325Z,0
2017-08-19T02:21:05.352Z,0
2017-08-19T02:22:05.637Z,0
2017-08-19T02:23:05.636Z,0
2017-08-19T02:24:05.344Z,0
2017-08-19T02:25:05.364Z,0
2017-08-19T02:26:05.146Z,0
2017-08-19T02:27:05.643Z,0
2017-08-19T02:28:04.733Z,0
2017-08-19T02:29:05.358Z,0
2017-08-19T02:30:06.656Z,0
2017-08-19T02:31:05.664Z,0
2017-08-19T02:32:05.649Z,0
2017-08-19T02:33:05.685Z,0
2017-08-19T02:34:05.663Z,0
2017-08-19T02:35:05.086Z,0
2017-08-19T02:36:05.655Z,0
2017-08-19T02:37:05.365Z,0
2017-08-19T02:38:05.364Z,0
2017-08-19T02:39:05.659Z,0
2017-08-19T02:40:05.671Z,0
2017-08-19T02:41:05.673Z,0
2017-08-19T02:42:05.662Z,0
2017-08-19T02:43:05.363Z,0
2017-08-19T02:44:05.661Z,0
2017-08-19T02:45:05.420Z,0
2017-08-19T02:46:05.734Z,0
2017-08-19T02:47:05.673Z,0
2017-08-19T02:48:05.661Z,0
2017-08-19T02:49:05.375Z,0
2017-08-19T02:50:05.373Z,0
2017-08-19T02:51:05.386Z,0
2017-08-19T02:52:05.376Z,0
2017-08-19T02:53:05.678Z,0
2017-08-19T02:54:05.697Z,0
2017-08-19T02:55:05.402Z,0
2017-08-19T02:56:05.672Z,0
2017-08-19T02:57:05.680Z,0
2017-08-19T02:58:05.677Z,0
2017-08-19T02:59:05.699Z,0
2017-08-19T03:00:07.692Z,0
2017-08-19T03:01:05.714Z,0
2017-08-19T03:02:05.683Z,0
2017-08-19T03:03:05.698Z,0
2017-08-19T03:04:05.703Z,0
2017-08-19T03:05:05.413Z,0
2017-08-19T03:06:05.464Z,0
2017-08-19T03:07:05.380Z,0
2017-08-19T03:08:05.700Z,0
2017-08-19T03:09:05.705Z,0
2017-08-19T03:10:04.794Z,0
2017-08-19T03:11:05.725Z,0
2017-08-19T03:12:05.390Z,0
2017-08-19T03:13:05.716Z,0
2017-08-19T03:14:05.407Z,0
2017-08-19T03:15:05.486Z,0
2017-08-19T03:16:05.407Z,0
2017-08-19T03:17:05.706Z,0
2017-08-19T03:18:05.707Z,0
2017-08-19T03:19:05.714Z,0
2017-08-19T03:20:05.406Z,0
2017-08-19T03:21:05.438Z,0
2017-08-19T03:22:05.717Z,0
2017-08-19T03:23:05.413Z,0
2017-08-19T03:24:05.707Z,0
2017-08-19T03:25:05.738Z,0
2017-08-19T03:26:05.771Z,0
2017-08-19T03:27:05.708Z,0
2017-08-19T03:28:05.718Z,0
2017-08-19T03:29:05.415Z,0
2017-08-19T03:30:07.789Z,0
2017-08-19T03:31:05.770Z,0
2017-08-19T03:32:05.752Z,0
2017-08-19T03:33:05.425Z,0
2017-08-19T03:34:05.434Z,0
2017-08-19T03:35:05.736Z,0
2017-08-19T03:36:05.737Z,0
2017-08-19T03:37:05.431Z,0
2017-08-19T03:38:05.737Z,0
2017-08-19T03:39:05.742Z,0
2017-08-19T03:40:05.736Z,0
2017-08-19T03:41:05.491Z,0
2017-08-19T03:42:05.730Z,0
2017-08-19T03:43:05.772Z,0
2017-08-19T03:44:05.435Z,0
2017-08-19T03:45:05.958Z,0
2017-08-19T03:46:05.433Z,0
2017-08-19T03:47:05.746Z,0
2017-08-19T03:48:05.434Z,0
2017-08-19T03:49:05.430Z,0
2017-08-19T03:50:05.433Z,0
2017-08-19T03:51:05.751Z,0
2017-08-19T03:52:05.434Z,0
2017-08-19T03:53:05.448Z,0
2017-08-19T03:54:05.440Z,0
2017-08-19T03:55:05.740Z,0
2017-08-19T03:56:05.849Z,0
2017-08-19T03:57:05.439Z,0
2017-08-19T03:58:05.435Z,0
2017-08-19T03:59:05.756Z,0
2017-08-19T04:00:05.747Z,0
2017-08-19T04:01:05.838Z,0
2017-08-19T04:02:05.173Z,0
2017-08-19T04:03:05.143Z,0
2017-08-19T04:04:05.159Z,0
2017-08-19T04:05:05.449Z,0
2017-08-19T04:06:05.752Z,0
2017-08-19T04:07:05.745Z,0
2017-08-19T04:08:05.451Z,0
2017-08-19T04:09:05.783Z,0
2017-08-19T04:10:05.747Z,0
2017-08-19T04:11:05.764Z,0
2017-08-19T04:12:05.448Z,0
2017-08-19T04:13:05.755Z,0
2017-08-19T04:14:05.798Z,0
2017-08-19T04:15:05.446Z,0
2017-08-19T04:16:05.605Z,0
2017-08-19T04:17:05.750Z,0
2017-08-19T04:18:05.452Z,0
2017-08-19T04:19:05.460Z,0
2017-08-19T04:20:05.756Z,0
2017-08-19T04:21:05.809Z,0
2017-08-19T04:22:05.453Z,0
2017-08-19T04:23:05.454Z,0
2017-08-19T04:24:05.170Z,0
2017-08-19T04:25:05.757Z,0
2017-08-19T04:26:05.796Z,0
2017-08-19T04:27:05.763Z,0
2017-08-19T04:28:05.756Z,0
2017-08-19T04:29:05.758Z,0
2017-08-19T04:30:05.455Z,0
2017-08-19T04:31:07.816Z,0
2017-08-19T04:32:05.479Z,0
2017-08-19T04:33:05.465Z,0
2017-08-19T04:34:05.762Z,0
2017-08-19T04:35:05.761Z,0
2017-08-19T04:36:05.853Z,0
2017-08-19T04:37:05.765Z,0
2017-08-19T04:38:05.799Z,0
2017-08-19T04:39:05.773Z,0
2017-08-19T04:40:05.487Z,0
2017-08-19T04:41:05.766Z,0
2017-08-19T04:42:05.467Z,0
2017-08-19T04:43:05.764Z,0
2017-08-19T04:44:05.778Z,0
2017-08-19T04:45:05.769Z,0
2017-08-19T04:46:05.850Z,0
2017-08-19T04:47:05.775Z,0
2017-08-19T04:48:05.779Z,5
2017-08-19T04:49:05.468Z,5
2017-08-19T04:50:05.487Z,5
2017-08-19T04:51:05.819Z,5
2017-08-19T04:52:05.779Z,5
2017-08-19T04:53:05.476Z,5
2017-08-19T04:54:05.474Z,5
2017-08-19T04:55:05.500Z,5
2017-08-19T04:56:06.302Z,5
2017-08-19T04:57:05.773Z,5
2017-08-19T04:58:05.489Z,5
2017-08-19T04:59:05.772Z,5
2017-08-19T05:00:05.826Z,5
2017-08-19T05:01:06.790Z,5
2017-08-19T05:02:05.772Z,5
2017-08-19T05:03:05.489Z,5
2017-08-19T05:04:05.810Z,5
2017-08-19T05:05:05.494Z,5
2017-08-19T05:06:05.842Z,5
2017-08-19T05:07:05.478Z,5
2017-08-19T05:08:05.784Z,5
2017-08-19T05:09:05.482Z,5
2017-08-19T05:10:05.482Z,5
2017-08-19T05:11:05.790Z,5
2017-08-19T05:12:05.473Z,10
2017-08-19T05:13:05.776Z,10
2017-08-19T05:14:05.484Z,10
2017-08-19T05:15:05.780Z,10
2017-08-19T05:16:05.879Z,10
2017-08-19T05:17:05.478Z,10
2017-08-19T05:18:05.493Z,10
2017-08-19T05:19:05.190Z,10
2017-08-19T05:20:05.484Z,10
2017-08-19T05:21:05.850Z,10
2017-08-19T05:22:05.489Z,10
2017-08-19T05:23:05.491Z,10
2017-08-19T05:24:05.793Z,10
2017-08-19T05:25:05.498Z,10
2017-08-19T05:26:05.289Z,10
2017-08-19T05:27:05.485Z,10
2017-08-19T05:28:05.796Z,15
2017-08-19T05:29:05.795Z,15
2017-08-19T05:30:05.803Z,20
2017-08-19T05:31:05.785Z,20
2017-08-19T05:32:05.520Z,25
2017-08-19T05:33:05.491Z,30
2017-08-19T05:34:05.488Z,35
2017-08-19T05:35:05.490Z,40
2017-08-19T05:36:04.985Z,45
2017-08-19T05:37:05.198Z,45
2017-08-19T05:38:05.823Z,50
2017-08-19T05:39:05.823Z,55
2017-08-19T05:40:05.492Z,55
2017-08-19T05:41:05.870Z,55
2017-08-19T05:42:05.873Z,55
2017-08-19T05:43:05.209Z,50
2017-08-19T05:44:05.512Z,50
2017-08-19T05:45:04.915Z,55
2017-08-19T05:46:05.574Z,55
2017-08-19T05:47:05.828Z,60
2017-08-19T05:48:05.802Z,65
2017-08-19T05:49:05.514Z,70
2017-08-19T05:50:05.828Z,75
2017-08-19T05:51:05.249Z,80
2017-08-19T05:52:05.815Z,85
2017-08-19T05:53:05.806Z,85
2017-08-19T05:54:05.830Z,85
2017-08-19T05:55:05.550Z,85
2017-08-19T05:56:05.536Z,90
2017-08-19T05:57:05.521Z,95
2017-08-19T05:58:05.519Z,95
2017-08-19T05:59:04.915Z,100
2017-08-19T06:00:05.834Z,105
2017-08-19T06:01:08.780Z,110
2017-08-19T06:02:05.535Z,105
2017-08-19T06:03:05.850Z,105
2017-08-19T06:04:05.834Z,105
2017-08-19T06:05:05.836Z,110
2017-08-19T06:06:05.835Z,110
2017-08-19T06:07:05.535Z,115
2017-08-19T06:08:05.839Z,115
2017-08-19T06:09:05.533Z,120
2017-08-19T06:10:05.843Z,120
2017-08-19T06:11:05.843Z,125
2017-08-19T06:12:05.843Z,130
2017-08-19T06:13:05.838Z,135
2017-08-19T06:14:05.838Z,140
2017-08-19T06:15:05.568Z,145
2017-08-19T06:16:05.608Z,150
2017-08-19T06:17:07.215Z,155
2017-08-19T06:18:05.545Z,165
2017-08-19T06:19:05.850Z,165
2017-08-19T06:20:05.259Z,185
2017-08-19T06:21:05.603Z,160
2017-08-19T06:22:05.553Z,155
2017-08-19T06:23:05.855Z,135
2017-08-19T06:24:05.260Z,125
2017-08-19T06:25:05.856Z,115
2017-08-19T06:26:05.608Z,110
2017-08-19T06:27:05.871Z,105
2017-08-19T06:28:05.578Z,105
2017-08-19T06:29:05.562Z,110
2017-08-19T06:30:05.858Z,110
2017-08-19T06:31:05.593Z,105
2017-08-19T06:32:09.079Z,110
2017-08-19T06:33:05.863Z,105
2017-08-19T06:34:05.561Z,100
2017-08-19T06:35:05.562Z,100
2017-08-19T06:36:05.633Z,100
2017-08-19T06:37:05.265Z,95
2017-08-19T06:38:05.870Z,95
2017-08-19T06:39:05.881Z,90
2017-08-19T06:40:05.916Z,90
2017-08-19T06:41:05.629Z,95
2017-08-19T06:42:05.310Z,100
2017-08-19T06:43:05.586Z,100
2017-08-19T06:44:05.883Z,100
2017-08-19T06:45:05.586Z,105
2017-08-19T06:46:05.584Z,110
2017-08-19T06:47:05.634Z,110
2017-08-19T06:48:05.898Z,110
2017-08-19T06:49:05.886Z,110
2017-08-19T06:50:05.886Z,105
2017-08-19T06:51:05.888Z,110
2017-08-19T06:52:05.581Z,115
2017-08-19T06:53:05.594Z,120
2017-08-19T06:54:05.890Z,120
2017-08-19T06:55:05.591Z,125
2017-08-19T06:56:05.649Z,125
2017-08-19T06:57:05.907Z,125
2017-08-19T06:58:05.601Z,120
2017-08-19T06:59:05.607Z,120
2017-08-19T07:00:05.649Z,120
2017-08-19T07:01:05.897Z,120
2017-08-19T07:02:06.048Z,120
2017-08-19T07:03:05.901Z,120
2017-08-19T07:04:05.894Z,125
2017-08-19T07:05:05.902Z,145
2017-08-19T07:06:05.325Z,155
2017-08-19T07:07:05.612Z,160
2017-08-19T07:08:05.906Z,165
2017-08-19T07:09:05.941Z,170
2017-08-19T07:10:05.322Z,360
2017-08-19T07:11:05.979Z,365
2017-08-19T07:12:05.615Z,370
2017-08-19T07:13:05.930Z,290
2017-08-19T07:14:05.628Z,275
2017-08-19T07:15:05.624Z,320
2017-08-19T07:16:05.636Z,375
2017-08-19T07:17:05.969Z,380
2017-08-19T07:18:05.638Z,400
2017-08-19T07:19:05.937Z,405
2017-08-19T07:20:05.934Z,405
2017-08-19T07:21:05.937Z,390
2017-08-19T07:22:05.940Z,365
2017-08-19T07:23:05.644Z,425
2017-08-19T07:24:05.643Z,395
2017-08-19T07:25:05.959Z,235
2017-08-19T07:26:05.658Z,225
2017-08-19T07:27:05.657Z,215
2017-08-19T07:28:05.366Z,230
2017-08-19T07:29:05.677Z,340
2017-08-19T07:30:06.010Z,235
2017-08-19T07:31:05.984Z,235
2017-08-19T07:32:06.004Z,240
2017-08-19T07:33:05.999Z,395
2017-08-19T07:34:05.404Z,385
2017-08-19T07:35:06.034Z,335
2017-08-19T07:36:06.077Z,265
2017-08-19T07:37:06.011Z,255
2017-08-19T07:38:05.708Z,255
2017-08-19T07:39:05.107Z,265
2017-08-19T07:40:05.724Z,290
2017-08-19T07:41:05.776Z,310
2017-08-19T07:42:05.724Z,290
2017-08-19T07:43:05.729Z,290
2017-08-19T07:44:06.041Z,330
2017-08-19T07:45:06.088Z,260
2017-08-19T07:46:05.766Z,260
2017-08-19T07:47:06.628Z,255
2017-08-19T07:48:05.751Z,260
2017-08-19T07:49:06.067Z,260
2017-08-19T07:50:06.099Z,255
2017-08-19T07:51:05.774Z,245
2017-08-19T07:52:06.079Z,245
2017-08-19T07:53:06.081Z,240
2017-08-19T07:54:05.780Z,240
2017-08-19T07:55:05.788Z,235
2017-08-19T07:56:05.528Z,240
2017-08-19T07:57:06.114Z,240
2017-08-19T07:58:06.114Z,255
2017-08-19T07:59:06.102Z,255
2017-08-19T08:00:06.102Z,265
2017-08-19T08:01:06.131Z,260
2017-08-19T08:02:06.112Z,260
2017-08-19T08:03:06.123Z,270
2017-08-19T08:04:05.208Z,280
2017-08-19T08:05:06.166Z,285
2017-08-19T08:06:05.587Z,295
2017-08-19T08:07:06.127Z,280
2017-08-19T08:08:06.132Z,275
2017-08-19T08:09:05.837Z,270
2017-08-19T08:10:06.171Z,270
2017-08-19T08:11:05.636Z,265
2017-08-19T08:12:05.851Z,260
2017-08-19T08:13:06.153Z,260
2017-08-19T08:14:06.150Z,260
2017-08-19T08:15:06.152Z,265
2017-08-19T08:16:05.692Z,270
2017-08-19T08:17:05.551Z,265
2017-08-19T08:18:06.180Z,255
2017-08-19T08:19:05.889Z,250
2017-08-19T08:20:06.166Z,250
2017-08-19T08:21:06.230Z,255
2017-08-19T08:22:05.891Z,260
2017-08-19T08:23:06.184Z,275
2017-08-19T08:24:06.199Z,290
2017-08-19T08:25:05.956Z,325
2017-08-19T08:26:05.956Z,285
2017-08-19T08:27:06.188Z,280
2017-08-19T08:28:06.211Z,270
2017-08-19T08:29:06.201Z,270
2017-08-19T08:30:05.927Z,285
2017-08-19T08:31:06.240Z,265
2017-08-19T08:32:05.623Z,250
2017-08-19T08:33:06.296Z,255
2017-08-19T08:34:05.928Z,250
2017-08-19T08:35:05.628Z,270
2017-08-19T08:36:05.929Z,280
2017-08-19T08:37:05.632Z,275
2017-08-19T08:38:06.238Z,310
2017-08-19T08:39:06.246Z,365
2017-08-19T08:40:06.305Z,380
2017-08-19T08:41:06.323Z,415
2017-08-19T08:42:05.661Z,345
2017-08-19T08:43:05.959Z,310
2017-08-19T08:44:05.959Z,310
2017-08-19T08:45:06.363Z,275
2017-08-19T08:46:06.302Z,245
2017-08-19T08:47:05.680Z,250
2017-08-19T08:48:09.989Z,260
2017-08-19T08:49:06.326Z,345
2017-08-19T08:50:06.003Z,355
2017-08-19T08:51:06.338Z,375
2017-08-19T08:52:05.706Z,285
2017-08-19T08:53:06.020Z,260
2017-08-19T08:54:06.023Z,245
2017-08-19T08:55:06.323Z,255
2017-08-19T08:56:06.389Z,325
2017-08-19T08:57:06.344Z,315
2017-08-19T08:58:05.770Z,340
2017-08-19T08:59:06.281Z,330
2017-08-19T09:00:06.350Z,330
2017-08-19T09:01:06.441Z,330
2017-08-19T09:02:06.065Z,335
2017-08-19T09:03:08.667Z,340
2017-08-19T09:04:06.381Z,340
2017-08-19T09:05:06.390Z,345
2017-08-19T09:06:06.151Z,345
2017-08-19T09:07:06.095Z,355
2017-08-19T09:08:06.890Z,360
2017-08-19T09:09:06.406Z,315
2017-08-19T09:10:06.094Z,355
2017-08-19T09:11:05.824Z,370
2017-08-19T09:12:06.109Z,370
2017-08-19T09:13:06.108Z,375
2017-08-19T09:14:06.414Z,255
2017-08-19T09:15:06.128Z,390
2017-08-19T09:16:06.485Z,390
2017-08-19T09:17:06.428Z,400
2017-08-19T09:18:08.027Z,430
2017-08-19T09:19:06.135Z,425
2017-08-19T09:20:06.184Z,280
2017-08-19T09:21:06.521Z,275
2017-08-19T09:22:05.888Z,290
2017-08-19T09:23:06.462Z,300
2017-08-19T09:24:06.464Z,330
2017-08-19T09:25:06.160Z,290
2017-08-19T09:26:06.180Z,280
2017-08-19T09:27:06.479Z,395
2017-08-19T09:28:06.476Z,360
2017-08-19T09:29:06.171Z,330
2017-08-19T09:30:06.184Z,375
2017-08-19T09:31:06.195Z,440
2017-08-19T09:32:06.494Z,320
2017-08-19T09:33:06.504Z,425
2017-08-19T09:34:06.496Z,320
2017-08-19T09:35:05.917Z,310
2017-08-19T09:36:06.586Z,435
2017-08-19T09:37:06.216Z,385
2017-08-19T09:38:06.224Z,325
2017-08-19T09:39:05.922Z,320
2017-08-19T09:40:06.528Z,460
2017-08-19T09:41:06.297Z,450
2017-08-19T09:42:06.530Z,465
2017-08-19T09:43:06.236Z,450
2017-08-19T09:44:06.547Z,450
2017-08-19T09:45:05.945Z,440
2017-08-19T09:46:05.982Z,330
2017-08-19T09:47:05.961Z,300
2017-08-19T09:48:06.268Z,350
2017-08-19T09:49:06.760Z,270
2017-08-19T09:50:06.275Z,235
2017-08-19T09:51:06.646Z,210
2017-08-19T09:52:06.590Z,185
2017-08-19T09:53:06.280Z,185
2017-08-19T09:54:06.597Z,200
2017-08-19T09:55:06.613Z,215
2017-08-19T09:56:06.315Z,215
2017-08-19T09:57:06.303Z,195
2017-08-19T09:58:06.623Z,160
2017-08-19T09:59:06.018Z,145
2017-08-19T10:00:06.629Z,125
2017-08-19T10:01:06.366Z,115
2017-08-19T10:02:06.643Z,110
2017-08-19T10:03:06.657Z,110
2017-08-19T10:04:06.700Z,120
2017-08-19T10:05:06.644Z,125
2017-08-19T10:06:06.373Z,135
2017-08-19T10:07:05.458Z,150
2017-08-19T10:08:06.083Z,165
2017-08-19T10:09:06.671Z,175
2017-08-19T10:10:06.375Z,190
2017-08-19T10:11:06.094Z,215
2017-08-19T10:12:06.668Z,235
2017-08-19T10:13:06.678Z,250
2017-08-19T10:14:06.380Z,235
2017-08-19T10:15:06.686Z,220
2017-08-19T10:16:06.707Z,225
2017-08-19T10:17:06.084Z,245
2017-08-19T10:18:06.409Z,265
2017-08-19T10:19:07.493Z,285
2017-08-19T10:20:06.111Z,290
2017-08-19T10:21:06.772Z,280
2017-08-19T10:22:06.424Z,265
2017-08-19T10:23:06.723Z,250
2017-08-19T10:24:06.711Z,255
2017-08-19T10:25:06.124Z,255
2017-08-19T10:26:06.130Z,245
2017-08-19T10:27:06.744Z,240
2017-08-19T10:28:06.435Z,230
2017-08-19T10:29:06.742Z,225
2017-08-19T10:30:06.752Z,230
2017-08-19T10:31:06.474Z,235
2017-08-19T10:32:06.748Z,245
2017-08-19T10:33:06.753Z,245
2017-08-19T10:34:06.963Z,285
2017-08-19T10:35:05.884Z,280
2017-08-19T10:36:06.473Z,280
2017-08-19T10:37:06.774Z,275
2017-08-19T10:38:06.178Z,265
2017-08-19T10:39:06.489Z,255
2017-08-19T10:40:06.783Z,250
2017-08-19T10:41:06.855Z,255
2017-08-19T10:42:06.789Z,255
2017-08-19T10:43:06.801Z,260
2017-08-19T10:44:06.487Z,295
2017-08-19T10:45:06.807Z,265
2017-08-19T10:46:06.858Z,285
2017-08-19T10:47:06.514Z,370
2017-08-19T10:48:06.501Z,290
2017-08-19T10:49:10.815Z,360
2017-08-19T10:50:06.808Z,375
2017-08-19T10:51:06.902Z,380
2017-08-19T10:52:06.824Z,385
2017-08-19T10:53:06.222Z,310
2017-08-19T10:54:06.247Z,370
2017-08-19T10:55:06.836Z,365
2017-08-19T10:56:06.622Z,360
2017-08-19T10:57:06.849Z,375
2017-08-19T10:58:06.847Z,390
2017-08-19T10:59:06.849Z,385
2017-08-19T11:00:06.855Z,375
2017-08-19T11:01:06.566Z,380
2017-08-19T11:02:06.574Z,375
2017-08-19T11:03:06.866Z,380
2017-08-19T11:04:06.569Z,370
2017-08-19T11:05:06.573Z,305
2017-08-19T11:06:06.982Z,300
2017-08-19T11:07:06.878Z,280
2017-08-19T11:08:06.592Z,340
2017-08-19T11:09:06.899Z,325
2017-08-19T11:10:06.325Z,285
2017-08-19T11:11:06.666Z,275
2017-08-19T11:12:06.615Z,340
2017-08-19T11:13:06.924Z,270
2017-08-19T11:14:06.923Z,265
2017-08-19T11:15:06.926Z,265
2017-08-19T11:16:06.713Z,255
2017-08-19T11:17:06.929Z,250
2017-08-19T11:18:06.939Z,315
2017-08-19T11:19:06.339Z,225
2017-08-19T11:20:09.099Z,215
2017-08-19T11:21:07.043Z,200
2017-08-19T11:22:06.650Z,200
2017-08-19T11:23:06.971Z,285
2017-08-19T11:24:06.400Z,245
2017-08-19T11:25:06.969Z,230
2017-08-19T11:26:06.695Z,225
2017-08-19T11:27:06.993Z,220
2017-08-19T11:28:06.670Z,245
2017-08-19T11:29:06.407Z,255
2017-08-19T11:30:06.728Z,270
2017-08-19T11:31:06.497Z,270
2017-08-19T11:32:06.697Z,285
2017-08-19T11:33:06.998Z,305
2017-08-19T11:34:06.722Z,365
2017-08-19T11:35:06.708Z,340
2017-08-19T11:36:07.060Z,330
2017-08-19T11:37:06.732Z,255
2017-08-19T11:38:07.025Z,255
2017-08-19T11:39:06.723Z,260
2017-08-19T11:40:07.043Z,270
2017-08-19T11:41:06.779Z,285
2017-08-19T11:42:07.046Z,360
2017-08-19T11:43:06.778Z,360
2017-08-19T11:44:06.763Z,345
2017-08-19T11:45:07.053Z,340
2017-08-19T11:46:07.173Z,345
2017-08-19T11:47:06.780Z,350
2017-08-19T11:48:07.065Z,290
2017-08-19T11:49:06.783Z,290
2017-08-19T11:50:11.085Z,310
2017-08-19T11:51:07.150Z,245
2017-08-19T11:52:07.097Z,245
2017-08-19T11:53:06.789Z,240
2017-08-19T11:54:07.094Z,250
2017-08-19T11:55:06.546Z,295
2017-08-19T11:56:07.191Z,290
2017-08-19T11:57:06.820Z,290
2017-08-19T11:58:07.126Z,280
2017-08-19T11:59:06.819Z,270
2017-08-19T12:00:06.825Z,270
2017-08-19T12:01:06.566Z,220
2017-08-19T12:02:07.162Z,260
2017-08-19T12:03:06.851Z,270
2017-08-19T12:04:06.840Z,275
2017-08-19T12:05:06.857Z,275
2017-08-19T12:06:06.603Z,280
2017-08-19T12:07:06.864Z,285
2017-08-19T12:08:07.184Z,295
2017-08-19T12:09:07.171Z,250
2017-08-19T12:10:06.860Z,280
2017-08-19T12:11:06.949Z,260
2017-08-19T12:12:06.881Z,245
2017-08-19T12:13:06.903Z,245
2017-08-19T12:14:06.890Z,240
2017-08-19T12:15:06.910Z,230
2017-08-19T12:16:06.929Z,210
2017-08-19T12:17:06.906Z,220
2017-08-19T12:18:07.241Z,250
2017-08-19T12:19:06.911Z,205
2017-08-19T12:20:08.073Z,185
2017-08-19T12:21:06.681Z,195
2017-08-19T12:22:06.946Z,255
2017-08-19T12:23:07.233Z,255
2017-08-19T12:24:06.645Z,245
2017-08-19T12:25:06.944Z,230
2017-08-19T12:26:07.280Z,190
2017-08-19T12:27:06.945Z,195
2017-08-19T12:28:07.253Z,240
2017-08-19T12:29:06.650Z,190
2017-08-19T12:30:06.949Z,190
2017-08-19T12:31:06.670Z,195
2017-08-19T12:32:07.257Z,195
2017-08-19T12:33:06.393Z,195
2017-08-19T12:34:06.966Z,195
2017-08-19T12:35:07.288Z,195
2017-08-19T12:36:07.021Z,200
2017-08-19T12:37:06.977Z,245
2017-08-19T12:38:06.978Z,255
2017-08-19T12:39:07.299Z,260
2017-08-19T12:40:07.295Z,260
2017-08-19T12:41:07.345Z,250
2017-08-19T12:42:07.326Z,250
2017-08-19T12:43:07.307Z,260
2017-08-19T12:44:07.308Z,260
2017-08-19T12:45:07.336Z,260
2017-08-19T12:46:06.750Z,260
2017-08-19T12:47:06.714Z,260
2017-08-19T12:48:07.330Z,270
2017-08-19T12:49:07.050Z,270
2017-08-19T12:50:07.059Z,270
2017-08-19T12:51:08.431Z,270
2017-08-19T12:52:07.341Z,270
2017-08-19T12:53:07.051Z,270
2017-08-19T12:54:07.056Z,270
2017-08-19T12:55:07.068Z,265
2017-08-19T12:56:07.137Z,270
2017-08-19T12:57:07.062Z,275
2017-08-19T12:58:07.376Z,240
2017-08-19T12:59:07.069Z,250
2017-08-19T13:00:07.081Z,240
2017-08-19T13:01:07.135Z,240
2017-08-19T13:02:07.379Z,240
2017-08-19T13:03:07.393Z,285
2017-08-19T13:04:06.818Z,290
2017-08-19T13:05:07.490Z,290
2017-08-19T13:06:06.589Z,285
2017-08-19T13:07:07.477Z,250
2017-08-19T13:08:07.128Z,285
2017-08-19T13:09:07.174Z,295
2017-08-19T13:10:06.834Z,295
2017-08-19T13:11:06.873Z,280
2017-08-19T13:12:07.158Z,265
2017-08-19T13:13:07.156Z,260
2017-08-19T13:14:07.450Z,245
2017-08-19T13:15:06.855Z,265
2017-08-19T13:16:06.914Z,265
2017-08-19T13:17:07.454Z,260
2017-08-19T13:18:07.147Z,265
2017-08-19T13:19:06.877Z,270
2017-08-19T13:20:07.218Z,270
2017-08-19T13:21:07.221Z,275
2017-08-19T13:22:06.878Z,240
2017-08-19T13:23:06.910Z,235
2017-08-19T13:24:07.491Z,225
2017-08-19T13:25:07.201Z,255
2017-08-19T13:26:06.938Z,255
2017-08-19T13:27:07.491Z,225
2017-08-19T13:28:06.918Z,235
2017-08-19T13:29:06.597Z,255
2017-08-19T13:30:06.908Z,265
2017-08-19T13:31:07.538Z,230
2017-08-19T13:32:07.211Z,230
2017-08-19T13:33:06.918Z,230
2017-08-19T13:34:07.515Z,205
2017-08-19T13:35:06.914Z,185
2017-08-19T13:36:07.557Z,200
2017-08-19T13:37:07.561Z,220
2017-08-19T13:38:07.253Z,220
2017-08-19T13:39:06.943Z,220
2017-08-19T13:40:07.628Z,220
2017-08-19T13:41:06.731Z,215
2017-08-19T13:42:06.962Z,215
2017-08-19T13:43:07.565Z,190
2017-08-19T13:44:07.569Z,195
2017-08-19T13:45:07.274Z,200
2017-08-19T13:46:07.619Z,215
2017-08-19T13:47:07.268Z,225
2017-08-19T13:48:07.579Z,235
2017-08-19T13:49:07.583Z,235
2017-08-19T13:50:07.663Z,240
2017-08-19T13:51:08.469Z,250
2017-08-19T13:52:07.289Z,250
2017-08-19T13:53:07.301Z,260
2017-08-19T13:54:07.605Z,260
2017-08-19T13:55:07.299Z,265
2017-08-19T13:56:07.394Z,260
2017-08-19T13:57:07.305Z,250
2017-08-19T13:58:07.618Z,250
2017-08-19T13:59:07.902Z,260
2017-08-19T14:00:07.367Z,265
2017-08-19T14:01:07.466Z,270
2017-08-19T14:02:07.633Z,270
2017-08-19T14:03:07.644Z,300
2017-08-19T14:04:07.358Z,285
2017-08-19T14:05:07.363Z,315
2017-08-19T14:06:11.913Z,310
2017-08-19T14:07:07.677Z,290
2017-08-19T14:08:07.350Z,250
2017-08-19T14:09:07.693Z,235